Lake of the Woods, Illinois
Current Conditions -  °F | °C
As of 8:12 PM on Monday 22 Dec 2014 (Local Time) from KPIA Reporting Station
Light Rain Light Rain  
Wind Chill: 43°   Ceiling: 400
Heat Index: 47°   Visibility: 4mi
Dew Point: 43°   Wind: 9mph
Humidity: 86%   Direction: 130°SE
Pressure: 29.54"   Gusts: NA
Location:  40.8455°N, 89.6704°W
Report Text: KPIA 230212Z 13008KT 4SM -RA BR OVC004 08/06 A2954 RMK AO2 P0001 T00830061
Loading
Personal Weather Stations






























Interactive Weather Map New forecast layout! Learn more

10-Day Weather Forecast

Advertisements
Track Severe Weather on mobile